Pagrindinis puslapis
METAR-TAF:

METAR-TAF

Oro uostai :

Guadalupe Mountains National Park

Pine Springs, Teksasas, Jungtinės Amerikos Valstijos

platuma: 31-49-52N, ilguma: 104-48-32W, Aukštis: 1661 m

Dabartinis oras

Ataskaita buvo paskelbta 52 minutes, ne 09:51 UTC
Vėjas 25 kt iš Šiaurės Rytų
Temperatūra 16°C
Drėgmė 48%
Slėgis 1027 hPa
Matomumas: 16.1 km
Giedras dangus

METAR: KGDP 290951Z AUTO 04025KT 10SM CLR 16/05 A3032 RMK AO2 PK WND 05034/0853 SLP193 T01610050

Laikas: 05:43 (10:43 UTC)


TAF: trūkstamas

Orai ataskaitas ir orų prognozės (METAR, TAF).

turimą stotys yra geltonos ir raudonos taškus žemėlapyje.

Perkelti pele per norėdami pamatyti stoties vardą.

Tada spustelėkite, norėdami matyti oro stebėjimo ir prognozės.

Norėdami pakeisti žemėlapį: spustelėkite ant žalios mygtukų su juodo kryžiaus žemyn,; žalią mygtuką su brūkšneliu, jei norite nutolinti; arba žalių rodyklių gretimoms žemėlapius.


METAR-TAF: